Погода Таймиштэна неделю

Скопье, Македония

16 - 22 июля
  • 16июля
    Сегодня
    +16°
    +33°
    Ясно и безоблачно
    ВремяПогодаТемператураВлажностьДавлениеВетер, м/сВероятность осадков
    02:00Ясно и безоблачно+18°C57 %700 мм1.5 м/с2 %
    05:00Ясно и безоблачно+15°C61 %700 мм1.0 м/с2 %
    08:00Ясно и безоблачно+23°C52 %702 мм0.6 м/с2 %
    11:00Ясно и безоблачно+30°C37 %703 мм0.9 м/с2 %
    14:00Ясно и безоблачно+33°C29 %702 мм1.2 м/с2 %
    17:00Практически безоблачно+32°C27 %701 мм1.4 м/с2 %
    20:00Ясно и безоблачно+26°C54 %701 мм1.1 м/с2 %
    23:00Ясно и безоблачно+19°C73 %700 мм1.3 м/с2 %
  • 17июля
    Среда
    +18°
    +34°
    Практически безоблачно
    ВремяПогодаТемператураВлажностьДавлениеВетер, м/сВероятность осадков
    02:00Ясно и безоблачно+16°C70 %700 мм0.8 м/с2 %
    05:00Ясно и безоблачно+16°C57 %700 мм1.0 м/с2 %
    08:00Ясно и безоблачно+23°C47 %702 мм0.5 м/с2 %
    11:00Ясно и безоблачно+31°C31 %704 мм1.1 м/с2 %
    14:00Практически безоблачно+34°C24 %703 мм1.5 м/с2 %
    17:00Небольшая облачность+33°C26 %703 мм1.8 м/с5 %
    20:00Небольшая облачность+27°C48 %702 мм1.2 м/с3 %
    23:00Практически безоблачно+22°C51 %702 мм1.5 м/с2 %
  • 18июля
    Четверг
    +18°
    +34°
    Небольшая облачность
    ВремяПогодаТемператураВлажностьДавлениеВетер, м/сВероятность осадков
    02:00Ясно и безоблачно+20°C55 %702 мм1.6 м/с2 %
    05:00Ясно и безоблачно+19°C64 %702 мм1.5 м/с2 %
    08:00Ясно и безоблачно+24°C52 %704 мм0.9 м/с2 %
    11:00Ясно и безоблачно+31°C40 %705 мм2.0 м/с2 %
    14:00Небольшая облачность+33°C33 %704 мм2.0 м/с18 %
    17:00Небольшая облачность, возможен дождь с грозой+31°C48 %704 мм1.8 м/с32 %
    20:00Практически безоблачно+26°C62 %704 мм1.4 м/с9 %
    23:00Ясно и безоблачно+23°C70 %704 мм1.7 м/с2 %
  • 19июля
    Пятница
    +17°
    +31°
    Ясно и безоблачно
    ВремяПогодаТемператураВлажностьДавлениеВетер, м/сВероятность осадков
    02:00Ясно и безоблачно+20°C74 %703 мм1.4 м/с2 %
    05:00Ясно и безоблачно+18°C74 %703 мм1.4 м/с2 %
    08:00Ясно и безоблачно+24°C61 %704 мм1.5 м/с2 %
    11:00Ясно и безоблачно+30°C48 %704 мм1.8 м/с5 %
    14:00Ясно и безоблачно+31°C36 %703 мм2.0 м/с27 %
    17:00Практически безоблачно+29°C35 %702 мм2.2 м/с38 %
    20:00Ясно и безоблачно+25°C59 %702 мм1.8 м/с17 %
    23:00Ясно и безоблачно+21°C68 %702 мм1.7 м/с2 %
  • 20июля
    Суббота
    +15°
    +32°
    Небольшая облачность
    ВремяПогодаТемператураВлажностьДавлениеВетер, м/сВероятность осадков
    02:00Ясно и безоблачно+20°C70 %701 мм1.5 м/с2 %
    05:00Ясно и безоблачно+18°C75 %700 мм1.2 м/с2 %
    08:00Ясно и безоблачно+24°C62 %701 мм1.4 м/с3 %
    11:00Практически безоблачно+30°C50 %702 мм1.9 м/с22 %
    14:00Небольшая облачность+32°C43 %701 мм2.2 м/с39 %
    17:00Небольшая облачность, возможен дождь с грозой+28°C59 %701 мм1.7 м/с57 %
    20:00Ясно и безоблачно+24°C79 %701 мм0.7 м/с39 %
    23:00Ясно и безоблачно+20°C90 %700 мм1.3 м/с4 %
Мы используем cookies
Соглашаюсь